Decoded Metar for KMGM (MONTGOMERY in AL, USA) (IATA:MGM) | Meteo·Mobile Aviation Weather
aviador You're here:

KMGM Decoded Metar

MONTGOMERY in AL, USA
Report Time2019-01-17 23:53:00
UTC Time2019-01-18 00:08:44
Flight Rules mvfr MVFR
Wind090° at 03 kt
W.Decomp.*RWY 10: 3.0 kt HW 0.5 kt LCW
RWY 03: 1.5 kt HW 2.6 kt RCW
W.Rank090° ranks 1
Current wind is below 090° avg. (6.1)
Visibility9999 m
Phenomena:N/A
Clouds:Overcast 023 Hf
Expected CloudBase > 800 ft AGL from Temp-Dew spread
Ceiling2,300 ft
Temp11°C (ISA -4)
Dew Point09°C (88% RH)
AAT9.7°C
QNH1021 hPa
Density Alt-338 ft
Elevation207 ft
Report Wrong Elevation
Raw Report
METAR KMGM 172353Z 09003KT 10SM OVC023 11/09 A3015 RMK AO2 RAB21E24
SLP208 P0000 60004 T01110094 10128 20106 56007=

Extra information for KMGM:More info

Metar Taf Metar & Taf Last 4 Metars F.Rules Stats Wind Profile Meteogram Temp Stats Airport Information Weather charts Add Link Nearby VenuesMetar ALERT Operation Metar Decoded Social comments

AIRNAV info for KMGM